sensor_id;sensor_type;location;lat;lon;timestamp;P1;durP1;ratioP1;P2;durP2;ratioP2
68614;SDS011;55593;51.994;5.882;2023-05-21T00:01:53;5.60;;;3.60;;
68614;SDS011;55593;51.994;5.882;2023-05-21T00:04:24;5.05;;;3.67;;
68614;SDS011;55593;51.994;5.882;2023-05-21T00:06:54;6.60;;;3.22;;
68614;SDS011;55593;51.994;5.882;2023-05-21T00:09:23;6.38;;;3.30;;
68614;SDS011;55593;51.994;5.882;2023-05-21T00:11:55;10.60;;;4.05;;
68614;SDS011;55593;51.994;5.882;2023-05-21T00:14:24;5.65;;;3.30;;
68614;SDS011;55593;51.994;5.882;2023-05-21T00:16:53;6.13;;;3.60;;
68614;SDS011;55593;51.994;5.882;2023-05-21T00:19:22;8.95;;;4.05;;
68614;SDS011;55593;51.994;5.882;2023-05-21T00:21:52;5.95;;;3.25;;
68614;SDS011;55593;51.994;5.882;2023-05-21T00:24:22;6.22;;;3.20;;
68614;SDS011;55593;51.994;5.882;2023-05-21T00:26:51;6.30;;;3.80;;
68614;SDS011;55593;51.994;5.882;2023-05-21T00:29:23;8.18;;;3.53;;
68614;SDS011;55593;51.994;5.882;2023-05-21T00:31:52;6.25;;;3.42;;
68614;SDS011;55593;51.994;5.882;2023-05-21T00:34:21;8.38;;;3.72;;
68614;SDS011;55593;51.994;5.882;2023-05-21T00:36:51;6.80;;;4.05;;
68614;SDS011;55593;51.994;5.882;2023-05-21T00:39:20;10.68;;;3.63;;
68614;SDS011;55593;51.994;5.882;2023-05-21T00:41:50;5.72;;;4.00;;
68614;SDS011;55593;51.994;5.882;2023-05-21T00:44:24;9.52;;;3.80;;
68614;SDS011;55593;51.994;5.882;2023-05-21T00:46:59;7.18;;;4.15;;
68614;SDS011;55593;51.994;5.882;2023-05-21T00:49:28;5.88;;;3.67;;
68614;SDS011;55593;51.994;5.882;2023-05-21T00:52:00;7.72;;;4.40;;
68614;SDS011;55593;51.994;5.882;2023-05-21T00:54:30;12.05;;;4.13;;
68614;SDS011;55593;51.994;5.882;2023-05-21T00:56:59;8.88;;;3.92;;
68614;SDS011;55593;51.994;5.882;2023-05-21T00:59:32;8.38;;;3.65;;
68614;SDS011;55593;51.994;5.882;2023-05-21T01:02:01;8.25;;;3.85;;
68614;SDS011;55593;51.994;5.882;2023-05-21T01:04:31;6.07;;;3.70;;
68614;SDS011;55593;51.994;5.882;2023-05-21T01:07:00;8.35;;;4.13;;
68614;SDS011;55593;51.994;5.882;2023-05-21T01:09:31;5.35;;;4.18;;
68614;SDS011;55593;51.994;5.882;2023-05-21T01:12:00;5.80;;;4.15;;
68614;SDS011;55593;51.994;5.882;2023-05-21T01:14:32;7.30;;;4.13;;
68614;SDS011;55593;51.994;5.882;2023-05-21T01:17:02;7.90;;;4.20;;
68614;SDS011;55593;51.994;5.882;2023-05-21T01:19:35;10.38;;;4.20;;
68614;SDS011;55593;51.994;5.882;2023-05-21T01:22:05;7.57;;;4.40;;
68614;SDS011;55593;51.994;5.882;2023-05-21T01:24:38;8.70;;;4.60;;
68614;SDS011;55593;51.994;5.882;2023-05-21T01:27:12;6.75;;;4.55;;
68614;SDS011;55593;51.994;5.882;2023-05-21T01:29:41;7.07;;;3.80;;
68614;SDS011;55593;51.994;5.882;2023-05-21T01:32:11;8.88;;;3.88;;
68614;SDS011;55593;51.994;5.882;2023-05-21T01:34:44;5.70;;;4.40;;
68614;SDS011;55593;51.994;5.882;2023-05-21T01:37:23;7.63;;;4.40;;
68614;SDS011;55593;51.994;5.882;2023-05-21T01:39:59;7.45;;;4.38;;
68614;SDS011;55593;51.994;5.882;2023-05-21T01:42:31;8.30;;;4.55;;
68614;SDS011;55593;51.994;5.882;2023-05-21T01:45:01;6.70;;;4.05;;
68614;SDS011;55593;51.994;5.882;2023-05-21T01:47:32;7.75;;;4.85;;
68614;SDS011;55593;51.994;5.882;2023-05-21T01:50:04;6.80;;;4.75;;
68614;SDS011;55593;51.994;5.882;2023-05-21T01:52:34;8.32;;;5.32;;
68614;SDS011;55593;51.994;5.882;2023-05-21T01:55:06;7.75;;;4.70;;
68614;SDS011;55593;51.994;5.882;2023-05-21T01:57:37;6.25;;;4.32;;
68614;SDS011;55593;51.994;5.882;2023-05-21T02:00:06;6.88;;;4.88;;
68614;SDS011;55593;51.994;5.882;2023-05-21T02:02:42;8.60;;;4.35;;
68614;SDS011;55593;51.994;5.882;2023-05-21T02:05:11;7.75;;;4.78;;
68614;SDS011;55593;51.994;5.882;2023-05-21T02:07:40;7.78;;;4.72;;
68614;SDS011;55593;51.994;5.882;2023-05-21T02:10:12;9.07;;;4.50;;
68614;SDS011;55593;51.994;5.882;2023-05-21T02:12:41;6.80;;;5.18;;
68614;SDS011;55593;51.994;5.882;2023-05-21T02:15:11;8.30;;;5.30;;
68614;SDS011;55593;51.994;5.882;2023-05-21T02:17:42;8.73;;;4.88;;
68614;SDS011;55593;51.994;5.882;2023-05-21T02:20:11;8.25;;;5.25;;
68614;SDS011;55593;51.994;5.882;2023-05-21T02:22:41;6.07;;;4.50;;
68614;SDS011;55593;51.994;5.882;2023-05-21T02:25:15;9.20;;;4.70;;
68614;SDS011;55593;51.994;5.882;2023-05-21T02:27:44;12.02;;;5.15;;
68614;SDS011;55593;51.994;5.882;2023-05-21T02:30:18;7.65;;;5.05;;
68614;SDS011;55593;51.994;5.882;2023-05-21T02:32:47;9.60;;;5.22;;
68614;SDS011;55593;51.994;5.882;2023-05-21T02:35:16;7.30;;;4.95;;
68614;SDS011;55593;51.994;5.882;2023-05-21T02:37:46;9.00;;;5.00;;
68614;SDS011;55593;51.994;5.882;2023-05-21T02:40:17;6.40;;;4.60;;
68614;SDS011;55593;51.994;5.882;2023-05-21T02:42:47;9.80;;;5.60;;
68614;SDS011;55593;51.994;5.882;2023-05-21T02:45:18;8.52;;;5.40;;
68614;SDS011;55593;51.994;5.882;2023-05-21T02:47:48;9.95;;;5.25;;
68614;SDS011;55593;51.994;5.882;2023-05-21T02:50:18;8.50;;;4.93;;
68614;SDS011;55593;51.994;5.882;2023-05-21T02:52:53;12.73;;;5.40;;
68614;SDS011;55593;51.994;5.882;2023-05-21T02:55:27;8.10;;;5.57;;
68614;SDS011;55593;51.994;5.882;2023-05-21T02:57:56;8.18;;;5.45;;
68614;SDS011;55593;51.994;5.882;2023-05-21T03:00:25;8.27;;;6.10;;
68614;SDS011;55593;51.994;5.882;2023-05-21T03:02:54;9.70;;;5.63;;
68614;SDS011;55593;51.994;5.882;2023-05-21T03:05:24;7.43;;;5.50;;
68614;SDS011;55593;51.994;5.882;2023-05-21T03:07:53;12.73;;;5.82;;
68614;SDS011;55593;51.994;5.882;2023-05-21T03:10:22;10.82;;;5.82;;
68614;SDS011;55593;51.994;5.882;2023-05-21T03:12:54;8.68;;;5.30;;
68614;SDS011;55593;51.994;5.882;2023-05-21T03:15:24;8.50;;;5.55;;
68614;SDS011;55593;51.994;5.882;2023-05-21T03:17:58;7.97;;;5.32;;
68614;SDS011;55593;51.994;5.882;2023-05-21T03:20:27;9.90;;;5.30;;
68614;SDS011;55593;51.994;5.882;2023-05-21T03:22:57;9.55;;;5.38;;
68614;SDS011;55593;51.994;5.882;2023-05-21T03:25:29;10.93;;;5.75;;
68614;SDS011;55593;51.994;5.882;2023-05-21T03:28:00;8.43;;;5.22;;
68614;SDS011;55593;51.994;5.882;2023-05-21T03:30:56;7.35;;;5.50;;
68614;SDS011;55593;51.994;5.882;2023-05-21T03:33:39;8.93;;;5.35;;
68614;SDS011;55593;51.994;5.882;2023-05-21T03:36:22;9.10;;;5.53;;
68614;SDS011;55593;51.994;5.882;2023-05-21T03:38:51;6.63;;;5.22;;
68614;SDS011;55593;51.994;5.882;2023-05-21T03:41:20;10.88;;;6.20;;
68614;SDS011;55593;51.994;5.882;2023-05-21T03:43:58;10.20;;;5.97;;
68614;SDS011;55593;51.994;5.882;2023-05-21T03:46:33;7.35;;;5.63;;
68614;SDS011;55593;51.994;5.882;2023-05-21T03:49:09;8.23;;;5.97;;
68614;SDS011;55593;51.994;5.882;2023-05-21T03:51:39;7.97;;;5.78;;
68614;SDS011;55593;51.994;5.882;2023-05-21T03:54:12;10.75;;;6.00;;
68614;SDS011;55593;51.994;5.882;2023-05-21T03:56:41;9.18;;;5.68;;
68614;SDS011;55593;51.994;5.882;2023-05-21T03:59:13;8.43;;;5.90;;
68614;SDS011;55593;51.994;5.882;2023-05-21T04:01:43;11.95;;;6.18;;
68614;SDS011;55593;51.994;5.882;2023-05-21T04:04:15;7.97;;;6.05;;
68614;SDS011;55593;51.994;5.882;2023-05-21T04:06:44;9.75;;;5.95;;
68614;SDS011;55593;51.994;5.882;2023-05-21T04:09:14;7.90;;;5.57;;
68614;SDS011;55593;51.994;5.882;2023-05-21T04:11:43;8.57;;;5.57;;
68614;SDS011;55593;51.994;5.882;2023-05-21T04:14:15;9.93;;;5.75;;
68614;SDS011;55593;51.994;5.882;2023-05-21T04:16:46;10.95;;;5.88;;
68614;SDS011;55593;51.994;5.882;2023-05-21T04:19:15;10.18;;;6.15;;
68614;SDS011;55593;51.994;5.882;2023-05-21T04:21:44;8.73;;;6.80;;
68614;SDS011;55593;51.994;5.882;2023-05-21T04:24:14;9.88;;;6.15;;
68614;SDS011;55593;51.994;5.882;2023-05-21T04:26:52;8.50;;;5.40;;
68614;SDS011;55593;51.994;5.882;2023-05-21T04:29:24;8.98;;;5.25;;
68614;SDS011;55593;51.994;5.882;2023-05-21T04:31:54;8.57;;;6.00;;
68614;SDS011;55593;51.994;5.882;2023-05-21T04:34:23;7.05;;;5.43;;
68614;SDS011;55593;51.994;5.882;2023-05-21T04:36:54;6.75;;;5.30;;
68614;SDS011;55593;51.994;5.882;2023-05-21T04:39:24;10.20;;;7.15;;
68614;SDS011;55593;51.994;5.882;2023-05-21T04:41:54;14.02;;;6.28;;
68614;SDS011;55593;51.994;5.882;2023-05-21T04:44:27;10.52;;;5.60;;
68614;SDS011;55593;51.994;5.882;2023-05-21T04:46:57;8.45;;;5.72;;
68614;SDS011;55593;51.994;5.882;2023-05-21T04:49:27;9.85;;;5.40;;
68614;SDS011;55593;51.994;5.882;2023-05-21T04:51:56;7.65;;;5.88;;
68614;SDS011;55593;51.994;5.882;2023-05-21T04:54:26;10.38;;;6.40;;
68614;SDS011;55593;51.994;5.882;2023-05-21T04:56:55;8.98;;;5.65;;
68614;SDS011;55593;51.994;5.882;2023-05-21T04:59:26;7.63;;;5.82;;
68614;SDS011;55593;51.994;5.882;2023-05-21T05:01:56;9.40;;;6.07;;
68614;SDS011;55593;51.994;5.882;2023-05-21T05:04:25;9.35;;;6.22;;
68614;SDS011;55593;51.994;5.882;2023-05-21T05:06:55;10.68;;;6.60;;
68614;SDS011;55593;51.994;5.882;2023-05-21T05:09:24;11.18;;;6.85;;
68614;SDS011;55593;51.994;5.882;2023-05-21T05:11:54;9.45;;;6.35;;
68614;SDS011;55593;51.994;5.882;2023-05-21T05:14:24;10.15;;;6.25;;
68614;SDS011;55593;51.994;5.882;2023-05-21T05:16:55;8.50;;;5.78;;
68614;SDS011;55593;51.994;5.882;2023-05-21T05:19:26;10.23;;;7.10;;
68614;SDS011;55593;51.994;5.882;2023-05-21T05:21:56;9.27;;;6.20;;
68614;SDS011;55593;51.994;5.882;2023-05-21T05:24:25;8.90;;;6.28;;
68614;SDS011;55593;51.994;5.882;2023-05-21T05:26:55;8.50;;;6.07;;
68614;SDS011;55593;51.994;5.882;2023-05-21T05:29:27;10.68;;;6.78;;
68614;SDS011;55593;51.994;5.882;2023-05-21T05:31:56;8.50;;;6.68;;
68614;SDS011;55593;51.994;5.882;2023-05-21T05:34:25;7.80;;;5.95;;
68614;SDS011;55593;51.994;5.882;2023-05-21T05:36:55;9.38;;;6.78;;
68614;SDS011;55593;51.994;5.882;2023-05-21T05:39:24;10.38;;;6.57;;
68614;SDS011;55593;51.994;5.882;2023-05-21T05:41:53;9.90;;;5.97;;
68614;SDS011;55593;51.994;5.882;2023-05-21T05:44:22;10.32;;;7.13;;
68614;SDS011;55593;51.994;5.882;2023-05-21T05:46:55;10.60;;;6.85;;
68614;SDS011;55593;51.994;5.882;2023-05-21T05:49:24;11.85;;;6.38;;
68614;SDS011;55593;51.994;5.882;2023-05-21T05:51:53;13.75;;;6.53;;
68614;SDS011;55593;51.994;5.882;2023-05-21T05:54:23;10.18;;;5.97;;
68614;SDS011;55593;51.994;5.882;2023-05-21T05:56:52;7.38;;;6.07;;
68614;SDS011;55593;51.994;5.882;2023-05-21T05:59:21;10.05;;;6.47;;
68614;SDS011;55593;51.994;5.882;2023-05-21T06:01:58;9.55;;;6.40;;
68614;SDS011;55593;51.994;5.882;2023-05-21T06:04:27;10.75;;;6.63;;
68614;SDS011;55593;51.994;5.882;2023-05-21T06:06:56;11.55;;;7.15;;
68614;SDS011;55593;51.994;5.882;2023-05-21T06:09:25;10.15;;;7.10;;
68614;SDS011;55593;51.994;5.882;2023-05-21T06:11:57;12.52;;;7.25;;
68614;SDS011;55593;51.994;5.882;2023-05-21T06:14:27;11.18;;;7.15;;
68614;SDS011;55593;51.994;5.882;2023-05-21T06:16:58;10.80;;;7.50;;
68614;SDS011;55593;51.994;5.882;2023-05-21T06:19:28;8.07;;;6.40;;
68614;SDS011;55593;51.994;5.882;2023-05-21T06:21:57;8.68;;;6.43;;
68614;SDS011;55593;51.994;5.882;2023-05-21T06:24:26;12.10;;;7.07;;
68614;SDS011;55593;51.994;5.882;2023-05-21T06:26:55;9.55;;;7.05;;
68614;SDS011;55593;51.994;5.882;2023-05-21T06:29:25;10.55;;;7.00;;
68614;SDS011;55593;51.994;5.882;2023-05-21T06:31:54;9.48;;;6.97;;
68614;SDS011;55593;51.994;5.882;2023-05-21T06:34:26;15.10;;;7.03;;
68614;SDS011;55593;51.994;5.882;2023-05-21T06:36:55;10.45;;;7.40;;
68614;SDS011;55593;51.994;5.882;2023-05-21T06:39:25;11.75;;;8.02;;
68614;SDS011;55593;51.994;5.882;2023-05-21T06:41:54;12.27;;;6.88;;
68614;SDS011;55593;51.994;5.882;2023-05-21T06:44:59;12.27;;;7.50;;
68614;SDS011;55593;51.994;5.882;2023-05-21T06:47:36;15.00;;;8.02;;
68614;SDS011;55593;51.994;5.882;2023-05-21T06:50:08;9.27;;;6.72;;
68614;SDS011;55593;51.994;5.882;2023-05-21T06:52:38;10.30;;;7.13;;
68614;SDS011;55593;51.994;5.882;2023-05-21T06:55:07;14.23;;;7.68;;
68614;SDS011;55593;51.994;5.882;2023-05-21T06:57:56;12.38;;;6.97;;
68614;SDS011;55593;51.994;5.882;2023-05-21T07:00:26;11.85;;;7.63;;
68614;SDS011;55593;51.994;5.882;2023-05-21T07:02:55;10.10;;;6.68;;
68614;SDS011;55593;51.994;5.882;2023-05-21T07:05:27;14.05;;;7.03;;
68614;SDS011;55593;51.994;5.882;2023-05-21T07:07:56;9.80;;;7.22;;
68614;SDS011;55593;51.994;5.882;2023-05-21T07:10:26;11.63;;;7.60;;
68614;SDS011;55593;51.994;5.882;2023-05-21T07:12:55;11.32;;;6.78;;
68614;SDS011;55593;51.994;5.882;2023-05-21T07:15:24;13.00;;;7.53;;
68614;SDS011;55593;51.994;5.882;2023-05-21T07:17:53;9.75;;;6.90;;
68614;SDS011;55593;51.994;5.882;2023-05-21T07:20:23;12.00;;;7.22;;
68614;SDS011;55593;51.994;5.882;2023-05-21T07:22:58;12.05;;;7.95;;
68614;SDS011;55593;51.994;5.882;2023-05-21T07:25:28;13.38;;;6.97;;
68614;SDS011;55593;51.994;5.882;2023-05-21T07:27:59;10.20;;;7.22;;
68614;SDS011;55593;51.994;5.882;2023-05-21T07:30:29;11.88;;;7.47;;
68614;SDS011;55593;51.994;5.882;2023-05-21T07:32:58;9.40;;;6.80;;
68614;SDS011;55593;51.994;5.882;2023-05-21T07:35:27;13.07;;;8.05;;
68614;SDS011;55593;51.994;5.882;2023-05-21T07:37:59;10.20;;;6.95;;
68614;SDS011;55593;51.994;5.882;2023-05-21T07:40:28;10.48;;;7.63;;
68614;SDS011;55593;51.994;5.882;2023-05-21T07:42:57;15.93;;;8.05;;
68614;SDS011;55593;51.994;5.882;2023-05-21T07:45:29;10.73;;;7.53;;
68614;SDS011;55593;51.994;5.882;2023-05-21T07:47:58;9.13;;;7.25;;
68614;SDS011;55593;51.994;5.882;2023-05-21T07:50:30;12.05;;;7.85;;
68614;SDS011;55593;51.994;5.882;2023-05-21T07:53:02;10.98;;;7.35;;
68614;SDS011;55593;51.994;5.882;2023-05-21T07:55:31;11.48;;;8.18;;
68614;SDS011;55593;51.994;5.882;2023-05-21T07:58:01;13.32;;;7.95;;
68614;SDS011;55593;51.994;5.882;2023-05-21T08:00:36;14.57;;;8.05;;
68614;SDS011;55593;51.994;5.882;2023-05-21T08:03:12;13.57;;;8.68;;
68614;SDS011;55593;51.994;5.882;2023-05-21T08:05:42;10.10;;;7.45;;
68614;SDS011;55593;51.994;5.882;2023-05-21T08:08:17;13.88;;;7.60;;
68614;SDS011;55593;51.994;5.882;2023-05-21T08:10:48;11.68;;;7.97;;
68614;SDS011;55593;51.994;5.882;2023-05-21T08:13:18;13.20;;;8.32;;
68614;SDS011;55593;51.994;5.882;2023-05-21T08:15:48;10.77;;;7.22;;
68614;SDS011;55593;51.994;5.882;2023-05-21T08:18:18;12.52;;;7.45;;
68614;SDS011;55593;51.994;5.882;2023-05-21T08:20:51;13.30;;;8.75;;
68614;SDS011;55593;51.994;5.882;2023-05-21T08:23:25;11.48;;;8.23;;
68614;SDS011;55593;51.994;5.882;2023-05-21T08:26:02;12.82;;;8.25;;
68614;SDS011;55593;51.994;5.882;2023-05-21T08:28:36;15.43;;;8.32;;
68614;SDS011;55593;51.994;5.882;2023-05-21T08:31:05;10.25;;;8.32;;
68614;SDS011;55593;51.994;5.882;2023-05-21T08:33:35;21.58;;;9.52;;
68614;SDS011;55593;51.994;5.882;2023-05-21T08:36:05;13.07;;;8.63;;
68614;SDS011;55593;51.994;5.882;2023-05-21T08:38:48;13.68;;;8.98;;
68614;SDS011;55593;51.994;5.882;2023-05-21T08:41:24;10.82;;;8.60;;
68614;SDS011;55593;51.994;5.882;2023-05-21T08:43:55;14.15;;;7.68;;
68614;SDS011;55593;51.994;5.882;2023-05-21T08:46:26;19.00;;;8.68;;
68614;SDS011;55593;51.994;5.882;2023-05-21T08:48:57;12.50;;;7.88;;
68614;SDS011;55593;51.994;5.882;2023-05-21T08:51:28;12.93;;;8.85;;
68614;SDS011;55593;51.994;5.882;2023-05-21T08:54:01;13.40;;;7.88;;
68614;SDS011;55593;51.994;5.882;2023-05-21T08:56:31;12.32;;;8.88;;
68614;SDS011;55593;51.994;5.882;2023-05-21T08:59:01;11.50;;;8.93;;
68614;SDS011;55593;51.994;5.882;2023-05-21T09:01:34;15.02;;;8.88;;
68614;SDS011;55593;51.994;5.882;2023-05-21T09:04:16;14.70;;;8.65;;
68614;SDS011;55593;51.994;5.882;2023-05-21T09:06:47;11.85;;;7.60;;
68614;SDS011;55593;51.994;5.882;2023-05-21T09:09:26;16.05;;;8.80;;
68614;SDS011;55593;51.994;5.882;2023-05-21T09:12:01;14.77;;;8.98;;
68614;SDS011;55593;51.994;5.882;2023-05-21T09:14:31;13.65;;;9.52;;
68614;SDS011;55593;51.994;5.882;2023-05-21T09:17:26;13.10;;;8.32;;
68614;SDS011;55593;51.994;5.882;2023-05-21T09:20:09;13.65;;;8.65;;
68614;SDS011;55593;51.994;5.882;2023-05-21T09:22:45;20.55;;;10.77;;
68614;SDS011;55593;51.994;5.882;2023-05-21T09:25:19;11.85;;;8.90;;
68614;SDS011;55593;51.994;5.882;2023-05-21T09:27:48;15.75;;;9.85;;
68614;SDS011;55593;51.994;5.882;2023-05-21T09:30:18;13.05;;;8.73;;
68614;SDS011;55593;51.994;5.882;2023-05-21T09:32:51;11.75;;;8.38;;
68614;SDS011;55593;51.994;5.882;2023-05-21T09:35:21;16.08;;;9.43;;
68614;SDS011;55593;51.994;5.882;2023-05-21T09:37:51;14.40;;;9.63;;
68614;SDS011;55593;51.994;5.882;2023-05-21T09:40:24;16.55;;;10.32;;
68614;SDS011;55593;51.994;5.882;2023-05-21T09:42:54;18.75;;;10.85;;
68614;SDS011;55593;51.994;5.882;2023-05-21T09:45:25;12.98;;;9.73;;
68614;SDS011;55593;51.994;5.882;2023-05-21T09:47:57;16.48;;;11.07;;
68614;SDS011;55593;51.994;5.882;2023-05-21T09:50:26;15.35;;;10.75;;
68614;SDS011;55593;51.994;5.882;2023-05-21T09:52:56;12.10;;;9.25;;
68614;SDS011;55593;51.994;5.882;2023-05-21T09:55:28;15.55;;;10.30;;
68614;SDS011;55593;51.994;5.882;2023-05-21T09:57:57;15.73;;;10.90;;
68614;SDS011;55593;51.994;5.882;2023-05-21T10:00:29;15.63;;;11.18;;
68614;SDS011;55593;51.994;5.882;2023-05-21T10:03:00;17.58;;;10.90;;
68614;SDS011;55593;51.994;5.882;2023-05-21T10:05:29;17.35;;;10.68;;
68614;SDS011;55593;51.994;5.882;2023-05-21T10:07:59;19.75;;;12.27;;
68614;SDS011;55593;51.994;5.882;2023-05-21T10:10:33;20.45;;;11.60;;
68614;SDS011;55593;51.994;5.882;2023-05-21T10:13:04;18.13;;;11.10;;
68614;SDS011;55593;51.994;5.882;2023-05-21T10:15:35;16.73;;;10.27;;
68614;SDS011;55593;51.994;5.882;2023-05-21T10:18:06;20.33;;;12.75;;
68614;SDS011;55593;51.994;5.882;2023-05-21T10:20:37;16.30;;;11.93;;
68614;SDS011;55593;51.994;5.882;2023-05-21T10:23:10;17.40;;;10.20;;
68614;SDS011;55593;51.994;5.882;2023-05-21T10:25:43;17.23;;;10.88;;
68614;SDS011;55593;51.994;5.882;2023-05-21T10:28:14;16.08;;;11.75;;
68614;SDS011;55593;51.994;5.882;2023-05-21T10:30:44;18.00;;;12.75;;
68614;SDS011;55593;51.994;5.882;2023-05-21T10:33:14;15.68;;;11.02;;
68614;SDS011;55593;51.994;5.882;2023-05-21T10:35:44;22.13;;;12.15;;
68614;SDS011;55593;51.994;5.882;2023-05-21T10:38:14;17.60;;;12.07;;
68614;SDS011;55593;51.994;5.882;2023-05-21T10:40:49;16.60;;;13.07;;
68614;SDS011;55593;51.994;5.882;2023-05-21T10:43:29;16.17;;;11.75;;
68614;SDS011;55593;51.994;5.882;2023-05-21T10:46:08;17.77;;;13.15;;
68614;SDS011;55593;51.994;5.882;2023-05-21T10:49:04;20.85;;;13.30;;
68614;SDS011;55593;51.994;5.882;2023-05-21T10:51:44;17.23;;;12.95;;
68614;SDS011;55593;51.994;5.882;2023-05-21T10:57:37;19.85;;;12.23;;
68614;SDS011;55593;51.994;5.882;2023-05-21T11:00:28;17.00;;;13.73;;
68614;SDS011;55593;51.994;5.882;2023-05-21T11:02:58;18.08;;;12.73;;
68614;SDS011;55593;51.994;5.882;2023-05-21T11:08:22;17.10;;;12.60;;
68614;SDS011;55593;51.994;5.882;2023-05-21T11:10:52;19.45;;;10.65;;
68614;SDS011;55593;51.994;5.882;2023-05-21T11:13:25;15.02;;;11.20;;
68614;SDS011;55593;51.994;5.882;2023-05-21T11:16:05;19.80;;;12.95;;
68614;SDS011;55593;51.994;5.882;2023-05-21T11:21:29;18.63;;;13.02;;
68614;SDS011;55593;51.994;5.882;2023-05-21T11:24:03;18.63;;;13.32;;
68614;SDS011;55593;51.994;5.882;2023-05-21T11:29:40;14.65;;;11.02;;
68614;SDS011;55593;51.994;5.882;2023-05-21T11:32:11;18.58;;;12.27;;
68614;SDS011;55593;51.994;5.882;2023-05-21T11:34:42;14.80;;;11.82;;
68614;SDS011;55593;51.994;5.882;2023-05-21T11:40:18;21.40;;;12.05;;
68614;SDS011;55593;51.994;5.882;2023-05-21T11:42:50;18.05;;;13.15;;
68614;SDS011;55593;51.994;5.882;2023-05-21T11:45:26;16.27;;;11.85;;
68614;SDS011;55593;51.994;5.882;2023-05-21T11:47:58;16.88;;;11.18;;
68614;SDS011;55593;51.994;5.882;2023-05-21T11:50:28;16.67;;;12.18;;
68614;SDS011;55593;51.994;5.882;2023-05-21T11:52:58;18.08;;;12.48;;
68614;SDS011;55593;51.994;5.882;2023-05-21T11:55:27;17.17;;;12.32;;
68614;SDS011;55593;51.994;5.882;2023-05-21T11:57:57;15.68;;;11.75;;
68614;SDS011;55593;51.994;5.882;2023-05-21T12:00:29;17.15;;;12.70;;
68614;SDS011;55593;51.994;5.882;2023-05-21T12:02:59;14.05;;;11.00;;
68614;SDS011;55593;51.994;5.882;2023-05-21T12:05:28;18.10;;;12.35;;
68614;SDS011;55593;51.994;5.882;2023-05-21T12:07:57;15.93;;;11.40;;
68614;SDS011;55593;51.994;5.882;2023-05-21T12:10:26;18.75;;;11.48;;
68614;SDS011;55593;51.994;5.882;2023-05-21T12:12:55;13.43;;;11.50;;
68614;SDS011;55593;51.994;5.882;2023-05-21T12:15:25;17.17;;;12.10;;
68614;SDS011;55593;51.994;5.882;2023-05-21T12:17:57;18.70;;;12.02;;
68614;SDS011;55593;51.994;5.882;2023-05-21T12:20:27;20.85;;;11.18;;
68614;SDS011;55593;51.994;5.882;2023-05-21T12:22:56;14.13;;;11.68;;
68614;SDS011;55593;51.994;5.882;2023-05-21T12:25:26;15.90;;;12.18;;
68614;SDS011;55593;51.994;5.882;2023-05-21T12:27:56;16.08;;;11.90;;
68614;SDS011;55593;51.994;5.882;2023-05-21T12:30:28;14.15;;;11.65;;
68614;SDS011;55593;51.994;5.882;2023-05-21T12:33:00;18.08;;;11.00;;
68614;SDS011;55593;51.994;5.882;2023-05-21T12:35:29;16.98;;;12.75;;
68614;SDS011;55593;51.994;5.882;2023-05-21T12:37:59;14.73;;;11.32;;
68614;SDS011;55593;51.994;5.882;2023-05-21T12:40:35;19.35;;;12.38;;
68614;SDS011;55593;51.994;5.882;2023-05-21T12:45:34;16.63;;;11.65;;
68614;SDS011;55593;51.994;5.882;2023-05-21T12:48:06;18.98;;;11.43;;
68614;SDS011;55593;51.994;5.882;2023-05-21T12:50:38;17.88;;;11.90;;
68614;SDS011;55593;51.994;5.882;2023-05-21T12:53:08;16.48;;;12.20;;
68614;SDS011;55593;51.994;5.882;2023-05-21T12:55:38;15.52;;;11.35;;
68614;SDS011;55593;51.994;5.882;2023-05-21T12:58:09;17.77;;;11.15;;
68614;SDS011;55593;51.994;5.882;2023-05-21T13:00:42;14.23;;;10.48;;
68614;SDS011;55593;51.994;5.882;2023-05-21T13:03:14;19.25;;;11.43;;
68614;SDS011;55593;51.994;5.882;2023-05-21T13:05:43;15.73;;;10.80;;
68614;SDS011;55593;51.994;5.882;2023-05-21T13:08:13;17.65;;;12.35;;
68614;SDS011;55593;51.994;5.882;2023-05-21T13:10:42;12.63;;;9.13;;
68614;SDS011;55593;51.994;5.882;2023-05-21T13:13:11;15.93;;;11.27;;
68614;SDS011;55593;51.994;5.882;2023-05-21T13:15:40;14.45;;;11.20;;
68614;SDS011;55593;51.994;5.882;2023-05-21T13:18:09;15.65;;;10.45;;
68614;SDS011;55593;51.994;5.882;2023-05-21T13:20:43;14.75;;;9.90;;
68614;SDS011;55593;51.994;5.882;2023-05-21T13:23:12;19.80;;;10.75;;
68614;SDS011;55593;51.994;5.882;2023-05-21T13:25:42;18.17;;;10.15;;
68614;SDS011;55593;51.994;5.882;2023-05-21T13:28:11;14.52;;;10.07;;
68614;SDS011;55593;51.994;5.882;2023-05-21T13:30:41;15.57;;;9.52;;
68614;SDS011;55593;51.994;5.882;2023-05-21T13:33:10;22.40;;;11.30;;
68614;SDS011;55593;51.994;5.882;2023-05-21T13:35:39;15.68;;;10.25;;
68614;SDS011;55593;51.994;5.882;2023-05-21T13:40:44;15.70;;;9.52;;
68614;SDS011;55593;51.994;5.882;2023-05-21T13:43:14;14.27;;;11.40;;
68614;SDS011;55593;51.994;5.882;2023-05-21T13:45:46;14.25;;;9.88;;
68614;SDS011;55593;51.994;5.882;2023-05-21T13:48:16;14.05;;;10.07;;
68614;SDS011;55593;51.994;5.882;2023-05-21T13:50:48;14.60;;;10.70;;
68614;SDS011;55593;51.994;5.882;2023-05-21T13:53:17;20.17;;;11.15;;
68614;SDS011;55593;51.994;5.882;2023-05-21T13:55:46;16.30;;;10.80;;
68614;SDS011;55593;51.994;5.882;2023-05-21T13:58:15;12.35;;;9.43;;
68614;SDS011;55593;51.994;5.882;2023-05-21T14:00:45;18.35;;;11.75;;
68614;SDS011;55593;51.994;5.882;2023-05-21T14:03:14;20.33;;;11.82;;
68614;SDS011;55593;51.994;5.882;2023-05-21T14:05:43;15.52;;;10.73;;
68614;SDS011;55593;51.994;5.882;2023-05-21T14:08:18;20.50;;;12.25;;
68614;SDS011;55593;51.994;5.882;2023-05-21T14:10:48;15.95;;;11.57;;
68614;SDS011;55593;51.994;5.882;2023-05-21T14:13:17;14.77;;;11.25;;
68614;SDS011;55593;51.994;5.882;2023-05-21T14:15:48;22.58;;;11.73;;
68614;SDS011;55593;51.994;5.882;2023-05-21T14:18:17;17.00;;;11.27;;
68614;SDS011;55593;51.994;5.882;2023-05-21T14:20:46;18.58;;;11.40;;
68614;SDS011;55593;51.994;5.882;2023-05-21T14:23:18;15.43;;;11.93;;
68614;SDS011;55593;51.994;5.882;2023-05-21T14:25:47;17.63;;;11.88;;
68614;SDS011;55593;51.994;5.882;2023-05-21T14:28:16;16.80;;;11.98;;
68614;SDS011;55593;51.994;5.882;2023-05-21T14:30:45;16.35;;;10.88;;
68614;SDS011;55593;51.994;5.882;2023-05-21T14:33:14;15.98;;;11.43;;
68614;SDS011;55593;51.994;5.882;2023-05-21T14:35:43;16.05;;;11.25;;
68614;SDS011;55593;51.994;5.882;2023-05-21T14:38:12;19.15;;;11.15;;
68614;SDS011;55593;51.994;5.882;2023-05-21T14:40:44;16.00;;;10.77;;
68614;SDS011;55593;51.994;5.882;2023-05-21T14:43:13;19.83;;;12.35;;
68614;SDS011;55593;51.994;5.882;2023-05-21T14:45:47;18.25;;;11.52;;
68614;SDS011;55593;51.994;5.882;2023-05-21T14:48:16;18.85;;;11.40;;
68614;SDS011;55593;51.994;5.882;2023-05-21T14:50:47;16.83;;;11.30;;
68614;SDS011;55593;51.994;5.882;2023-05-21T14:53:19;17.38;;;11.73;;
68614;SDS011;55593;51.994;5.882;2023-05-21T14:55:50;22.30;;;11.68;;
68614;SDS011;55593;51.994;5.882;2023-05-21T14:58:21;13.77;;;11.40;;
68614;SDS011;55593;51.994;5.882;2023-05-21T15:00:51;14.30;;;11.35;;
68614;SDS011;55593;51.994;5.882;2023-05-21T15:03:20;17.17;;;12.45;;
68614;SDS011;55593;51.994;5.882;2023-05-21T15:05:49;15.55;;;12.13;;
68614;SDS011;55593;51.994;5.882;2023-05-21T15:08:18;16.38;;;12.10;;
68614;SDS011;55593;51.994;5.882;2023-05-21T15:10:48;15.20;;;12.00;;
68614;SDS011;55593;51.994;5.882;2023-05-21T15:13:19;18.00;;;11.88;;
68614;SDS011;55593;51.994;5.882;2023-05-21T15:15:49;18.98;;;13.48;;
68614;SDS011;55593;51.994;5.882;2023-05-21T15:18:18;15.60;;;13.27;;